sensor_id;sensor_type;location;lat;lon;timestamp;temperature;humidity
7998;DHT22;4044;49.814;7.828;2022-12-05T00:00:14;4.40;99.90
7998;DHT22;4044;49.814;7.828;2022-12-05T00:02:40;4.50;99.90
7998;DHT22;4044;49.814;7.828;2022-12-05T00:05:06;4.50;99.90
7998;DHT22;4044;49.814;7.828;2022-12-05T00:07:32;4.60;99.90
7998;DHT22;4044;49.814;7.828;2022-12-05T00:09:57;4.40;99.90
7998;DHT22;4044;49.814;7.828;2022-12-05T00:12:23;4.50;99.90
7998;DHT22;4044;49.814;7.828;2022-12-05T00:14:49;4.50;99.90
7998;DHT22;4044;49.814;7.828;2022-12-05T00:17:14;4.50;99.90
7998;DHT22;4044;49.814;7.828;2022-12-05T00:19:40;4.40;99.90
7998;DHT22;4044;49.814;7.828;2022-12-05T00:22:05;4.40;99.90
7998;DHT22;4044;49.814;7.828;2022-12-05T00:24:31;4.40;99.90
7998;DHT22;4044;49.814;7.828;2022-12-05T00:26:56;4.40;99.90
7998;DHT22;4044;49.814;7.828;2022-12-05T00:29:22;4.40;99.90
7998;DHT22;4044;49.814;7.828;2022-12-05T00:31:47;4.40;99.90
7998;DHT22;4044;49.814;7.828;2022-12-05T00:34:13;4.40;99.90
7998;DHT22;4044;49.814;7.828;2022-12-05T00:36:39;4.30;99.90
7998;DHT22;4044;49.814;7.828;2022-12-05T00:39:07;4.40;99.90
7998;DHT22;4044;49.814;7.828;2022-12-05T00:41:33;4.40;99.90
7998;DHT22;4044;49.814;7.828;2022-12-05T00:44:00;4.40;99.90
7998;DHT22;4044;49.814;7.828;2022-12-05T00:46:27;4.50;99.90
7998;DHT22;4044;49.814;7.828;2022-12-05T00:48:54;4.60;99.90
7998;DHT22;4044;49.814;7.828;2022-12-05T00:51:23;4.70;99.90
7998;DHT22;4044;49.814;7.828;2022-12-05T00:53:49;4.70;99.90
7998;DHT22;4044;49.814;7.828;2022-12-05T00:56:21;4.90;99.90
7998;DHT22;4044;49.814;7.828;2022-12-05T00:58:48;4.90;99.90
7998;DHT22;4044;49.814;7.828;2022-12-05T01:01:18;5.00;99.90
7998;DHT22;4044;49.814;7.828;2022-12-05T01:03:45;4.90;99.90
7998;DHT22;4044;49.814;7.828;2022-12-05T01:06:11;4.90;99.90
7998;DHT22;4044;49.814;7.828;2022-12-05T01:08:37;4.90;99.90
7998;DHT22;4044;49.814;7.828;2022-12-05T01:11:04;4.90;99.90
7998;DHT22;4044;49.814;7.828;2022-12-05T01:13:31;4.80;99.90
7998;DHT22;4044;49.814;7.828;2022-12-05T01:15:57;4.90;99.90
7998;DHT22;4044;49.814;7.828;2022-12-05T01:18:23;4.80;99.90
7998;DHT22;4044;49.814;7.828;2022-12-05T01:20:50;4.70;99.90
7998;DHT22;4044;49.814;7.828;2022-12-05T01:23:16;4.70;99.90
7998;DHT22;4044;49.814;7.828;2022-12-05T01:25:44;4.70;99.90
7998;DHT22;4044;49.814;7.828;2022-12-05T01:28:10;4.70;99.90
7998;DHT22;4044;49.814;7.828;2022-12-05T01:30:40;4.60;99.90
7998;DHT22;4044;49.814;7.828;2022-12-05T01:33:07;4.50;99.90
7998;DHT22;4044;49.814;7.828;2022-12-05T01:35:34;4.50;99.90
7998;DHT22;4044;49.814;7.828;2022-12-05T01:38:00;4.60;99.90
7998;DHT22;4044;49.814;7.828;2022-12-05T01:40:26;4.50;99.90
7998;DHT22;4044;49.814;7.828;2022-12-05T01:42:51;4.60;99.90
7998;DHT22;4044;49.814;7.828;2022-12-05T01:45:28;4.50;99.90
7998;DHT22;4044;49.814;7.828;2022-12-05T01:47:56;4.50;99.90
7998;DHT22;4044;49.814;7.828;2022-12-05T01:50:22;4.40;99.90
7998;DHT22;4044;49.814;7.828;2022-12-05T01:52:48;4.40;99.90
7998;DHT22;4044;49.814;7.828;2022-12-05T01:55:16;4.50;99.90
7998;DHT22;4044;49.814;7.828;2022-12-05T01:57:43;4.60;99.90
7998;DHT22;4044;49.814;7.828;2022-12-05T02:00:16;4.60;99.90
7998;DHT22;4044;49.814;7.828;2022-12-05T02:02:53;4.60;99.90
7998;DHT22;4044;49.814;7.828;2022-12-05T02:05:32;4.50;99.90
7998;DHT22;4044;49.814;7.828;2022-12-05T02:08:00;4.50;99.90
7998;DHT22;4044;49.814;7.828;2022-12-05T02:10:28;4.60;99.90
7998;DHT22;4044;49.814;7.828;2022-12-05T02:12:58;4.60;99.90
7998;DHT22;4044;49.814;7.828;2022-12-05T02:15:35;4.50;99.90
7998;DHT22;4044;49.814;7.828;2022-12-05T02:21:43;4.60;99.90
7998;DHT22;4044;49.814;7.828;2022-12-05T02:24:41;4.70;99.90
7998;DHT22;4044;49.814;7.828;2022-12-05T02:30:05;4.80;99.90
7998;DHT22;4044;49.814;7.828;2022-12-05T02:32:46;4.80;99.90
7998;DHT22;4044;49.814;7.828;2022-12-05T02:35:30;4.70;99.90
7998;DHT22;4044;49.814;7.828;2022-12-05T02:38:17;4.70;99.90
7998;DHT22;4044;49.814;7.828;2022-12-05T02:40:57;4.70;99.90
7998;DHT22;4044;49.814;7.828;2022-12-05T02:43:30;4.80;99.90
7998;DHT22;4044;49.814;7.828;2022-12-05T02:45:59;4.80;99.90
7998;DHT22;4044;49.814;7.828;2022-12-05T02:48:27;4.80;99.90
7998;DHT22;4044;49.814;7.828;2022-12-05T02:50:54;4.80;99.90
7998;DHT22;4044;49.814;7.828;2022-12-05T02:53:23;4.70;99.90
7998;DHT22;4044;49.814;7.828;2022-12-05T02:55:49;4.80;99.90
7998;DHT22;4044;49.814;7.828;2022-12-05T02:58:19;4.80;99.90
7998;DHT22;4044;49.814;7.828;2022-12-05T03:00:48;4.80;99.90
7998;DHT22;4044;49.814;7.828;2022-12-05T03:03:17;4.90;99.90
7998;DHT22;4044;49.814;7.828;2022-12-05T03:06:06;5.00;99.90
7998;DHT22;4044;49.814;7.828;2022-12-05T03:08:38;5.00;99.90
7998;DHT22;4044;49.814;7.828;2022-12-05T03:11:05;4.80;99.90
7998;DHT22;4044;49.814;7.828;2022-12-05T03:13:39;4.80;99.90
7998;DHT22;4044;49.814;7.828;2022-12-05T03:16:14;4.90;99.90
7998;DHT22;4044;49.814;7.828;2022-12-05T03:18:46;4.90;99.90
7998;DHT22;4044;49.814;7.828;2022-12-05T03:21:33;4.90;99.90
7998;DHT22;4044;49.814;7.828;2022-12-05T03:24:06;5.00;99.90
7998;DHT22;4044;49.814;7.828;2022-12-05T03:34:46;5.10;99.90
7998;DHT22;4044;49.814;7.828;2022-12-05T03:37:31;5.10;99.90
7998;DHT22;4044;49.814;7.828;2022-12-05T03:40:26;5.10;99.90
7998;DHT22;4044;49.814;7.828;2022-12-05T03:43:20;5.20;99.90
7998;DHT22;4044;49.814;7.828;2022-12-05T03:46:00;5.20;99.90
7998;DHT22;4044;49.814;7.828;2022-12-05T03:51:02;5.10;99.90
7998;DHT22;4044;49.814;7.828;2022-12-05T03:53:36;5.00;99.90
7998;DHT22;4044;49.814;7.828;2022-12-05T03:56:20;5.00;99.90
7998;DHT22;4044;49.814;7.828;2022-12-05T03:59:07;5.00;99.90
7998;DHT22;4044;49.814;7.828;2022-12-05T04:01:35;5.00;99.90
7998;DHT22;4044;49.814;7.828;2022-12-05T04:04:08;4.90;99.90
7998;DHT22;4044;49.814;7.828;2022-12-05T04:06:37;4.80;99.90
7998;DHT22;4044;49.814;7.828;2022-12-05T04:09:08;4.90;99.90
7998;DHT22;4044;49.814;7.828;2022-12-05T04:11:39;4.90;99.90
7998;DHT22;4044;49.814;7.828;2022-12-05T04:14:12;4.90;99.90
7998;DHT22;4044;49.814;7.828;2022-12-05T04:17:01;4.90;99.90
7998;DHT22;4044;49.814;7.828;2022-12-05T04:19:47;4.90;99.90
7998;DHT22;4044;49.814;7.828;2022-12-05T04:22:33;5.00;99.90
7998;DHT22;4044;49.814;7.828;2022-12-05T04:25:01;5.00;99.90
7998;DHT22;4044;49.814;7.828;2022-12-05T04:30:18;5.10;99.90
7998;DHT22;4044;49.814;7.828;2022-12-05T04:38:24;5.20;99.90
7998;DHT22;4044;49.814;7.828;2022-12-05T04:41:01;5.20;99.90
7998;DHT22;4044;49.814;7.828;2022-12-05T04:43:29;5.10;99.90
7998;DHT22;4044;49.814;7.828;2022-12-05T04:45:57;5.10;99.90
7998;DHT22;4044;49.814;7.828;2022-12-05T04:48:26;5.20;99.90
7998;DHT22;4044;49.814;7.828;2022-12-05T04:50:53;5.20;99.90
7998;DHT22;4044;49.814;7.828;2022-12-05T04:53:23;5.20;99.90
7998;DHT22;4044;49.814;7.828;2022-12-05T04:55:52;5.30;99.90
7998;DHT22;4044;49.814;7.828;2022-12-05T04:58:21;5.30;99.90
7998;DHT22;4044;49.814;7.828;2022-12-05T05:01:13;5.20;99.90
7998;DHT22;4044;49.814;7.828;2022-12-05T05:04:12;5.10;99.90
7998;DHT22;4044;49.814;7.828;2022-12-05T05:06:40;5.20;99.90
7998;DHT22;4044;49.814;7.828;2022-12-05T05:09:06;5.20;99.90
7998;DHT22;4044;49.814;7.828;2022-12-05T05:11:33;5.30;99.90
7998;DHT22;4044;49.814;7.828;2022-12-05T05:14:00;5.30;99.90
7998;DHT22;4044;49.814;7.828;2022-12-05T05:16:28;5.30;99.90
7998;DHT22;4044;49.814;7.828;2022-12-05T05:18:54;5.30;99.90
7998;DHT22;4044;49.814;7.828;2022-12-05T05:23:48;5.20;99.90
7998;DHT22;4044;49.814;7.828;2022-12-05T05:26:14;5.10;99.90
7998;DHT22;4044;49.814;7.828;2022-12-05T05:28:40;5.10;99.90
7998;DHT22;4044;49.814;7.828;2022-12-05T05:31:05;5.10;99.90
7998;DHT22;4044;49.814;7.828;2022-12-05T05:33:32;5.20;99.90
7998;DHT22;4044;49.814;7.828;2022-12-05T05:36:04;5.20;99.90
7998;DHT22;4044;49.814;7.828;2022-12-05T05:38:33;5.30;99.90
7998;DHT22;4044;49.814;7.828;2022-12-05T05:40:59;5.30;99.90
7998;DHT22;4044;49.814;7.828;2022-12-05T05:43:24;5.40;99.90
7998;DHT22;4044;49.814;7.828;2022-12-05T05:45:50;5.30;99.90
7998;DHT22;4044;49.814;7.828;2022-12-05T05:48:15;5.20;99.90
7998;DHT22;4044;49.814;7.828;2022-12-05T05:50:41;5.00;99.90
7998;DHT22;4044;49.814;7.828;2022-12-05T05:53:06;4.90;99.90
7998;DHT22;4044;49.814;7.828;2022-12-05T05:55:32;4.80;99.90
7998;DHT22;4044;49.814;7.828;2022-12-05T05:57:57;4.80;99.90
7998;DHT22;4044;49.814;7.828;2022-12-05T06:00:23;4.70;99.90
7998;DHT22;4044;49.814;7.828;2022-12-05T06:02:48;4.80;99.90
7998;DHT22;4044;49.814;7.828;2022-12-05T06:05:14;4.80;99.90
7998;DHT22;4044;49.814;7.828;2022-12-05T06:07:39;4.70;99.90
7998;DHT22;4044;49.814;7.828;2022-12-05T06:10:05;4.70;99.90
7998;DHT22;4044;49.814;7.828;2022-12-05T06:12:31;4.80;99.90
7998;DHT22;4044;49.814;7.828;2022-12-05T06:14:57;4.80;99.90
7998;DHT22;4044;49.814;7.828;2022-12-05T06:17:22;4.90;99.90
7998;DHT22;4044;49.814;7.828;2022-12-05T06:19:48;4.90;99.90
7998;DHT22;4044;49.814;7.828;2022-12-05T06:22:13;4.90;99.90
7998;DHT22;4044;49.814;7.828;2022-12-05T06:24:39;5.00;99.90
7998;DHT22;4044;49.814;7.828;2022-12-05T06:27:04;5.00;99.90
7998;DHT22;4044;49.814;7.828;2022-12-05T06:29:30;5.00;99.90
7998;DHT22;4044;49.814;7.828;2022-12-05T06:31:55;5.00;99.90
7998;DHT22;4044;49.814;7.828;2022-12-05T06:34:21;4.90;99.90
7998;DHT22;4044;49.814;7.828;2022-12-05T06:36:46;4.90;99.90
7998;DHT22;4044;49.814;7.828;2022-12-05T06:39:12;4.90;99.90
7998;DHT22;4044;49.814;7.828;2022-12-05T06:41:37;4.90;99.90
7998;DHT22;4044;49.814;7.828;2022-12-05T06:44:03;4.90;99.90
7998;DHT22;4044;49.814;7.828;2022-12-05T06:46:29;4.90;99.90
7998;DHT22;4044;49.814;7.828;2022-12-05T06:48:56;4.90;99.90
7998;DHT22;4044;49.814;7.828;2022-12-05T06:51:22;5.00;99.90
7998;DHT22;4044;49.814;7.828;2022-12-05T06:53:48;5.00;99.90
7998;DHT22;4044;49.814;7.828;2022-12-05T06:56:17;4.90;99.90
7998;DHT22;4044;49.814;7.828;2022-12-05T06:58:45;4.90;99.90
7998;DHT22;4044;49.814;7.828;2022-12-05T07:01:16;4.70;99.90
7998;DHT22;4044;49.814;7.828;2022-12-05T07:04:01;4.70;99.90
7998;DHT22;4044;49.814;7.828;2022-12-05T07:06:27;4.80;99.90
7998;DHT22;4044;49.814;7.828;2022-12-05T07:08:53;4.90;99.90
7998;DHT22;4044;49.814;7.828;2022-12-05T07:11:19;5.00;99.90
7998;DHT22;4044;49.814;7.828;2022-12-05T07:13:44;4.90;99.90
7998;DHT22;4044;49.814;7.828;2022-12-05T07:16:10;5.00;99.90
7998;DHT22;4044;49.814;7.828;2022-12-05T07:18:35;5.00;99.90
7998;DHT22;4044;49.814;7.828;2022-12-05T07:21:04;5.00;99.90
7998;DHT22;4044;49.814;7.828;2022-12-05T07:23:30;5.10;99.90
7998;DHT22;4044;49.814;7.828;2022-12-05T07:25:55;5.00;99.90
7998;DHT22;4044;49.814;7.828;2022-12-05T07:28:22;5.00;99.90
7998;DHT22;4044;49.814;7.828;2022-12-05T07:30:48;4.80;99.90
7998;DHT22;4044;49.814;7.828;2022-12-05T07:33:14;4.80;99.90
7998;DHT22;4044;49.814;7.828;2022-12-05T07:35:39;4.80;99.90
7998;DHT22;4044;49.814;7.828;2022-12-05T07:38:05;5.00;99.90
7998;DHT22;4044;49.814;7.828;2022-12-05T07:40:31;5.10;99.90
7998;DHT22;4044;49.814;7.828;2022-12-05T07:42:56;5.20;99.90
7998;DHT22;4044;49.814;7.828;2022-12-05T07:45:22;5.30;99.90
7998;DHT22;4044;49.814;7.828;2022-12-05T07:47:47;5.40;99.90
7998;DHT22;4044;49.814;7.828;2022-12-05T07:50:13;5.50;99.90
7998;DHT22;4044;49.814;7.828;2022-12-05T07:52:40;5.50;99.90
7998;DHT22;4044;49.814;7.828;2022-12-05T07:55:06;5.60;99.90
7998;DHT22;4044;49.814;7.828;2022-12-05T07:57:32;5.80;99.90
7998;DHT22;4044;49.814;7.828;2022-12-05T07:59:57;5.60;99.90
7998;DHT22;4044;49.814;7.828;2022-12-05T08:02:23;5.70;99.90
7998;DHT22;4044;49.814;7.828;2022-12-05T08:04:48;5.70;99.90
7998;DHT22;4044;49.814;7.828;2022-12-05T08:07:14;5.80;99.90
7998;DHT22;4044;49.814;7.828;2022-12-05T08:09:39;5.70;99.90
7998;DHT22;4044;49.814;7.828;2022-12-05T08:12:05;5.70;99.90
7998;DHT22;4044;49.814;7.828;2022-12-05T08:14:31;5.70;99.90
7998;DHT22;4044;49.814;7.828;2022-12-05T08:16:56;5.80;99.90
7998;DHT22;4044;49.814;7.828;2022-12-05T08:19:22;5.90;99.90
7998;DHT22;4044;49.814;7.828;2022-12-05T08:21:47;5.90;99.90
7998;DHT22;4044;49.814;7.828;2022-12-05T08:24:13;5.90;99.90
7998;DHT22;4044;49.814;7.828;2022-12-05T08:26:39;5.90;99.90
7998;DHT22;4044;49.814;7.828;2022-12-05T08:29:13;5.90;99.90
7998;DHT22;4044;49.814;7.828;2022-12-05T08:31:42;5.90;99.90
7998;DHT22;4044;49.814;7.828;2022-12-05T08:34:10;5.90;99.90
7998;DHT22;4044;49.814;7.828;2022-12-05T08:36:36;6.00;99.90
7998;DHT22;4044;49.814;7.828;2022-12-05T08:39:04;6.00;99.90
7998;DHT22;4044;49.814;7.828;2022-12-05T08:41:30;6.00;99.90
7998;DHT22;4044;49.814;7.828;2022-12-05T08:43:58;6.00;99.90
7998;DHT22;4044;49.814;7.828;2022-12-05T08:46:24;6.00;99.90
7998;DHT22;4044;49.814;7.828;2022-12-05T08:48:50;5.90;99.90
7998;DHT22;4044;49.814;7.828;2022-12-05T08:51:16;5.80;99.90
7998;DHT22;4044;49.814;7.828;2022-12-05T08:53:41;5.90;99.90
7998;DHT22;4044;49.814;7.828;2022-12-05T08:56:08;5.80;99.90
7998;DHT22;4044;49.814;7.828;2022-12-05T08:58:34;5.80;99.90
7998;DHT22;4044;49.814;7.828;2022-12-05T09:01:07;5.80;99.90
7998;DHT22;4044;49.814;7.828;2022-12-05T09:03:34;5.80;99.90
7998;DHT22;4044;49.814;7.828;2022-12-05T09:06:17;5.70;99.90
7998;DHT22;4044;49.814;7.828;2022-12-05T09:08:43;5.70;99.90
7998;DHT22;4044;49.814;7.828;2022-12-05T09:11:12;5.80;99.90
7998;DHT22;4044;49.814;7.828;2022-12-05T09:13:38;5.70;99.90
7998;DHT22;4044;49.814;7.828;2022-12-05T09:16:16;5.60;99.90
7998;DHT22;4044;49.814;7.828;2022-12-05T09:18:42;5.70;99.90
7998;DHT22;4044;49.814;7.828;2022-12-05T09:21:13;5.70;99.90
7998;DHT22;4044;49.814;7.828;2022-12-05T09:23:40;5.80;99.90
7998;DHT22;4044;49.814;7.828;2022-12-05T09:26:07;5.80;99.90
7998;DHT22;4044;49.814;7.828;2022-12-05T09:28:35;5.90;99.90
7998;DHT22;4044;49.814;7.828;2022-12-05T09:31:03;5.80;99.90
7998;DHT22;4044;49.814;7.828;2022-12-05T09:33:29;5.70;99.90
7998;DHT22;4044;49.814;7.828;2022-12-05T09:35:56;5.70;99.90
7998;DHT22;4044;49.814;7.828;2022-12-05T09:38:22;5.80;99.90
7998;DHT22;4044;49.814;7.828;2022-12-05T09:43:54;5.90;99.90
7998;DHT22;4044;49.814;7.828;2022-12-05T09:49:12;6.10;99.90
7998;DHT22;4044;49.814;7.828;2022-12-05T09:51:42;6.20;99.90
7998;DHT22;4044;49.814;7.828;2022-12-05T09:54:10;6.40;99.90
7998;DHT22;4044;49.814;7.828;2022-12-05T09:56:37;6.50;99.90
7998;DHT22;4044;49.814;7.828;2022-12-05T09:59:03;6.70;99.90
7998;DHT22;4044;49.814;7.828;2022-12-05T10:01:54;6.80;99.90
7998;DHT22;4044;49.814;7.828;2022-12-05T10:07:09;6.80;99.90
7998;DHT22;4044;49.814;7.828;2022-12-05T10:12:57;6.90;99.90
7998;DHT22;4044;49.814;7.828;2022-12-05T10:15:29;6.90;99.90
7998;DHT22;4044;49.814;7.828;2022-12-05T10:21:02;6.90;99.90
7998;DHT22;4044;49.814;7.828;2022-12-05T10:23:48;6.90;99.90
7998;DHT22;4044;49.814;7.828;2022-12-05T10:26:15;7.10;99.90
7998;DHT22;4044;49.814;7.828;2022-12-05T10:28:50;6.90;99.90
7998;DHT22;4044;49.814;7.828;2022-12-05T10:31:19;6.80;99.90
7998;DHT22;4044;49.814;7.828;2022-12-05T10:33:50;6.80;99.90
7998;DHT22;4044;49.814;7.828;2022-12-05T10:36:17;7.10;99.90
7998;DHT22;4044;49.814;7.828;2022-12-05T10:38:44;7.10;99.90
7998;DHT22;4044;49.814;7.828;2022-12-05T10:41:12;7.20;99.90
7998;DHT22;4044;49.814;7.828;2022-12-05T10:43:41;7.30;99.90
7998;DHT22;4044;49.814;7.828;2022-12-05T10:46:07;7.50;99.90
7998;DHT22;4044;49.814;7.828;2022-12-05T10:48:36;7.60;99.90
7998;DHT22;4044;49.814;7.828;2022-12-05T10:51:03;7.70;99.90
7998;DHT22;4044;49.814;7.828;2022-12-05T10:53:47;7.80;99.90
7998;DHT22;4044;49.814;7.828;2022-12-05T10:56:41;7.80;99.90
7998;DHT22;4044;49.814;7.828;2022-12-05T10:59:16;7.70;99.90
7998;DHT22;4044;49.814;7.828;2022-12-05T11:01:53;7.70;99.90
7998;DHT22;4044;49.814;7.828;2022-12-05T11:04:28;7.70;99.90
7998;DHT22;4044;49.814;7.828;2022-12-05T11:07:03;7.80;99.90
7998;DHT22;4044;49.814;7.828;2022-12-05T11:09:36;7.90;99.90
7998;DHT22;4044;49.814;7.828;2022-12-05T11:14:33;7.90;99.90
7998;DHT22;4044;49.814;7.828;2022-12-05T11:17:01;7.50;99.90
7998;DHT22;4044;49.814;7.828;2022-12-05T11:21:55;7.50;99.90
7998;DHT22;4044;49.814;7.828;2022-12-05T11:24:29;7.40;99.90
7998;DHT22;4044;49.814;7.828;2022-12-05T11:26:56;6.90;99.90
7998;DHT22;4044;49.814;7.828;2022-12-05T11:29:34;6.80;99.90
7998;DHT22;4044;49.814;7.828;2022-12-05T11:32:02;6.90;99.90
7998;DHT22;4044;49.814;7.828;2022-12-05T11:34:34;6.90;99.90
7998;DHT22;4044;49.814;7.828;2022-12-05T11:37:19;6.80;99.90
7998;DHT22;4044;49.814;7.828;2022-12-05T11:39:46;6.90;99.90
7998;DHT22;4044;49.814;7.828;2022-12-05T11:42:28;6.90;99.90
7998;DHT22;4044;49.814;7.828;2022-12-05T11:46:05;7.00;99.90
7998;DHT22;4044;49.814;7.828;2022-12-05T12:01:54;6.90;99.90
7998;DHT22;4044;49.814;7.828;2022-12-05T12:10:18;7.10;99.90
7998;DHT22;4044;49.814;7.828;2022-12-05T12:15:45;7.40;99.90
7998;DHT22;4044;49.814;7.828;2022-12-05T12:18:19;7.30;99.90
7998;DHT22;4044;49.814;7.828;2022-12-05T12:20:55;7.40;99.90
7998;DHT22;4044;49.814;7.828;2022-12-05T12:26:28;7.50;99.90
7998;DHT22;4044;49.814;7.828;2022-12-05T12:39:50;7.40;99.90
7998;DHT22;4044;49.814;7.828;2022-12-05T12:42:35;7.40;99.90
7998;DHT22;4044;49.814;7.828;2022-12-05T12:50:25;7.40;99.90
7998;DHT22;4044;49.814;7.828;2022-12-05T12:56:00;7.50;99.90
7998;DHT22;4044;49.814;7.828;2022-12-05T12:58:48;7.60;99.90
7998;DHT22;4044;49.814;7.828;2022-12-05T13:01:31;7.70;99.90
7998;DHT22;4044;49.814;7.828;2022-12-05T13:04:31;7.70;99.90
7998;DHT22;4044;49.814;7.828;2022-12-05T13:07:05;7.70;99.90
7998;DHT22;4044;49.814;7.828;2022-12-05T13:09:49;7.70;99.90
7998;DHT22;4044;49.814;7.828;2022-12-05T13:12:21;7.70;99.90
7998;DHT22;4044;49.814;7.828;2022-12-05T13:17:39;7.60;99.90
7998;DHT22;4044;49.814;7.828;2022-12-05T13:20:17;7.60;99.90
7998;DHT22;4044;49.814;7.828;2022-12-05T13:22:44;7.70;99.90
7998;DHT22;4044;49.814;7.828;2022-12-05T13:25:15;7.70;99.90
7998;DHT22;4044;49.814;7.828;2022-12-05T13:27:56;7.80;99.90
7998;DHT22;4044;49.814;7.828;2022-12-05T13:30:23;7.80;99.90
7998;DHT22;4044;49.814;7.828;2022-12-05T13:32:57;7.90;99.90
7998;DHT22;4044;49.814;7.828;2022-12-05T13:35:31;7.90;99.90
7998;DHT22;4044;49.814;7.828;2022-12-05T13:38:28;7.90;99.90
7998;DHT22;4044;49.814;7.828;2022-12-05T13:41:13;7.90;99.90
7998;DHT22;4044;49.814;7.828;2022-12-05T13:43:58;7.90;99.90
7998;DHT22;4044;49.814;7.828;2022-12-05T13:46:32;8.00;99.90
7998;DHT22;4044;49.814;7.828;2022-12-05T13:49:03;8.00;99.90
7998;DHT22;4044;49.814;7.828;2022-12-05T13:51:36;8.00;99.90
7998;DHT22;4044;49.814;7.828;2022-12-05T13:54:23;8.00;99.90
7998;DHT22;4044;49.814;7.828;2022-12-05T13:56:57;8.10;99.90
7998;DHT22;4044;49.814;7.828;2022-12-05T14:00:01;8.00;99.90
7998;DHT22;4044;49.814;7.828;2022-12-05T14:07:56;8.00;99.90
7998;DHT22;4044;49.814;7.828;2022-12-05T14:15:30;7.80;99.90
7998;DHT22;4044;49.814;7.828;2022-12-05T14:18:09;7.70;99.90
7998;DHT22;4044;49.814;7.828;2022-12-05T14:34:36;7.50;99.90
7998;DHT22;4044;49.814;7.828;2022-12-05T14:37:06;7.50;99.90
7998;DHT22;4044;49.814;7.828;2022-12-05T14:39:42;7.60;99.90
7998;DHT22;4044;49.814;7.828;2022-12-05T14:44:48;7.50;99.90
7998;DHT22;4044;49.814;7.828;2022-12-05T14:47:18;7.50;99.90
7998;DHT22;4044;49.814;7.828;2022-12-05T14:52:24;7.50;99.90
7998;DHT22;4044;49.814;7.828;2022-12-05T14:55:01;7.40;99.90
7998;DHT22;4044;49.814;7.828;2022-12-05T14:57:28;7.50;99.90
7998;DHT22;4044;49.814;7.828;2022-12-05T15:00:04;7.40;99.90
7998;DHT22;4044;49.814;7.828;2022-12-05T15:02:38;7.40;99.90
7998;DHT22;4044;49.814;7.828;2022-12-05T15:05:28;7.50;99.90
7998;DHT22;4044;49.814;7.828;2022-12-05T15:07:55;7.50;99.90
7998;DHT22;4044;49.814;7.828;2022-12-05T15:10:36;7.50;99.90
7998;DHT22;4044;49.814;7.828;2022-12-05T15:13:14;7.50;99.90
7998;DHT22;4044;49.814;7.828;2022-12-05T15:15:44;7.60;99.90
7998;DHT22;4044;49.814;7.828;2022-12-05T15:18:43;7.30;99.90
7998;DHT22;4044;49.814;7.828;2022-12-05T15:21:43;7.10;99.90
7998;DHT22;4044;49.814;7.828;2022-12-05T15:24:14;7.10;99.90
7998;DHT22;4044;49.814;7.828;2022-12-05T15:31:52;7.20;99.90
7998;DHT22;4044;49.814;7.828;2022-12-05T15:40:15;7.30;99.90
7998;DHT22;4044;49.814;7.828;2022-12-05T15:42:44;7.10;99.90
7998;DHT22;4044;49.814;7.828;2022-12-05T15:47:50;7.00;99.90
7998;DHT22;4044;49.814;7.828;2022-12-05T15:50:38;6.80;99.90
7998;DHT22;4044;49.814;7.828;2022-12-05T15:55:50;6.70;99.90
7998;DHT22;4044;49.814;7.828;2022-12-05T15:58:24;6.60;99.90
7998;DHT22;4044;49.814;7.828;2022-12-05T16:00:55;6.60;99.90
7998;DHT22;4044;49.814;7.828;2022-12-05T16:03:48;6.60;99.90
7998;DHT22;4044;49.814;7.828;2022-12-05T16:06:30;6.70;99.90
7998;DHT22;4044;49.814;7.828;2022-12-05T16:08:58;6.60;99.90
7998;DHT22;4044;49.814;7.828;2022-12-05T16:11:25;6.60;99.90
7998;DHT22;4044;49.814;7.828;2022-12-05T16:13:55;6.60;99.90
7998;DHT22;4044;49.814;7.828;2022-12-05T16:16:26;6.60;99.90
7998;DHT22;4044;49.814;7.828;2022-12-05T16:18:54;6.60;99.90
7998;DHT22;4044;49.814;7.828;2022-12-05T16:21:39;6.60;99.90
7998;DHT22;4044;49.814;7.828;2022-12-05T16:24:19;6.70;99.90
7998;DHT22;4044;49.814;7.828;2022-12-05T16:26:59;6.60;99.90
7998;DHT22;4044;49.814;7.828;2022-12-05T16:29:30;6.40;99.90
7998;DHT22;4044;49.814;7.828;2022-12-05T16:31:58;6.50;99.90
7998;DHT22;4044;49.814;7.828;2022-12-05T16:34:25;6.60;99.90
7998;DHT22;4044;49.814;7.828;2022-12-05T16:36:53;6.80;99.90
7998;DHT22;4044;49.814;7.828;2022-12-05T16:39:19;6.90;99.90
7998;DHT22;4044;49.814;7.828;2022-12-05T16:41:46;6.90;99.90
7998;DHT22;4044;49.814;7.828;2022-12-05T16:46:56;6.80;99.90
7998;DHT22;4044;49.814;7.828;2022-12-05T16:49:32;6.90;99.90
7998;DHT22;4044;49.814;7.828;2022-12-05T16:54:31;6.90;99.90
7998;DHT22;4044;49.814;7.828;2022-12-05T16:56:58;7.00;99.90
7998;DHT22;4044;49.814;7.828;2022-12-05T16:59:35;6.90;99.90
7998;DHT22;4044;49.814;7.828;2022-12-05T17:02:03;6.90;99.90
7998;DHT22;4044;49.814;7.828;2022-12-05T17:04:29;6.90;99.90
7998;DHT22;4044;49.814;7.828;2022-12-05T17:06:55;7.00;99.90
7998;DHT22;4044;49.814;7.828;2022-12-05T17:09:22;7.10;99.90
7998;DHT22;4044;49.814;7.828;2022-12-05T17:11:50;7.00;99.90
7998;DHT22;4044;49.814;7.828;2022-12-05T17:14:17;7.00;99.90
7998;DHT22;4044;49.814;7.828;2022-12-05T17:16:43;7.00;99.90
7998;DHT22;4044;49.814;7.828;2022-12-05T17:19:12;7.00;99.90
7998;DHT22;4044;49.814;7.828;2022-12-05T17:21:39;7.00;99.90
7998;DHT22;4044;49.814;7.828;2022-12-05T17:24:10;7.10;99.90
7998;DHT22;4044;49.814;7.828;2022-12-05T17:26:37;7.10;99.90
7998;DHT22;4044;49.814;7.828;2022-12-05T17:29:03;7.20;99.90
7998;DHT22;4044;49.814;7.828;2022-12-05T17:31:28;7.20;99.90
7998;DHT22;4044;49.814;7.828;2022-12-05T17:33:54;7.30;99.90
7998;DHT22;4044;49.814;7.828;2022-12-05T17:36:20;7.30;99.90
7998;DHT22;4044;49.814;7.828;2022-12-05T17:38:45;7.30;99.90
7998;DHT22;4044;49.814;7.828;2022-12-05T17:41:19;7.40;99.90
7998;DHT22;4044;49.814;7.828;2022-12-05T17:43:45;7.40;99.90
7998;DHT22;4044;49.814;7.828;2022-12-05T17:46:15;7.40;99.90
7998;DHT22;4044;49.814;7.828;2022-12-05T17:48:41;7.40;99.90
7998;DHT22;4044;49.814;7.828;2022-12-05T17:51:08;7.40;99.90
7998;DHT22;4044;49.814;7.828;2022-12-05T17:53:36;7.40;99.90
7998;DHT22;4044;49.814;7.828;2022-12-05T17:56:02;7.30;99.90
7998;DHT22;4044;49.814;7.828;2022-12-05T17:58:27;7.30;99.90
7998;DHT22;4044;49.814;7.828;2022-12-05T18:00:53;7.10;99.90
7998;DHT22;4044;49.814;7.828;2022-12-05T18:03:18;7.00;99.90
7998;DHT22;4044;49.814;7.828;2022-12-05T18:05:45;7.10;99.90
7998;DHT22;4044;49.814;7.828;2022-12-05T18:08:11;7.20;99.90
7998;DHT22;4044;49.814;7.828;2022-12-05T18:10:40;7.20;99.90
7998;DHT22;4044;49.814;7.828;2022-12-05T18:13:07;7.20;99.90
7998;DHT22;4044;49.814;7.828;2022-12-05T18:15:33;7.30;99.90
7998;DHT22;4044;49.814;7.828;2022-12-05T18:17:58;7.30;99.90
7998;DHT22;4044;49.814;7.828;2022-12-05T18:20:27;7.30;99.90
7998;DHT22;4044;49.814;7.828;2022-12-05T18:22:53;7.40;99.90
7998;DHT22;4044;49.814;7.828;2022-12-05T18:25:19;7.40;99.90
7998;DHT22;4044;49.814;7.828;2022-12-05T18:27:44;7.30;99.90
7998;DHT22;4044;49.814;7.828;2022-12-05T18:30:10;7.30;99.90
7998;DHT22;4044;49.814;7.828;2022-12-05T18:32:36;7.30;99.90
7998;DHT22;4044;49.814;7.828;2022-12-05T18:35:02;7.30;99.90
7998;DHT22;4044;49.814;7.828;2022-12-05T18:37:29;7.30;99.90
7998;DHT22;4044;49.814;7.828;2022-12-05T18:39:55;7.20;99.90
7998;DHT22;4044;49.814;7.828;2022-12-05T18:42:21;7.20;99.90
7998;DHT22;4044;49.814;7.828;2022-12-05T18:44:46;7.20;99.90
7998;DHT22;4044;49.814;7.828;2022-12-05T18:47:13;7.30;99.90
7998;DHT22;4044;49.814;7.828;2022-12-05T18:49:40;7.30;99.90
7998;DHT22;4044;49.814;7.828;2022-12-05T18:52:05;7.30;99.90
7998;DHT22;4044;49.814;7.828;2022-12-05T18:54:31;7.30;99.90
7998;DHT22;4044;49.814;7.828;2022-12-05T18:56:57;7.40;99.90
7998;DHT22;4044;49.814;7.828;2022-12-05T18:59:22;7.40;99.90
7998;DHT22;4044;49.814;7.828;2022-12-05T19:01:48;7.50;99.90
7998;DHT22;4044;49.814;7.828;2022-12-05T19:04:17;7.40;99.90